Time;durP1;ratioP1;P1;durP2;ratioP2;P2;SDS_P1;SDS_P2;PMS_P1;PMS_P2;Temp;Humidity;BMP_temperature;BMP_pressure;BME280_temperature;BME280_humidity;BME280_pressure;Samples;Min_cycle;Max_cycle;Signal;HPM_P1;HPM_P2
2022/06/28 00:01:03;;;;;;;11.80;6.55;;;20.40;98.10;;;;;;10398104;28;20026;-86
2022/06/28 00:06:03;;;;;;;8.40;6.40;;;20.40;98.40;;;;;;10412980;28;20029;-85
2022/06/28 00:11:04;;;;;;;8.93;6.55;;;20.40;98.70;;;;;;10425581;23;20044;-88
2022/06/28 00:16:05;;;;;;;11.45;6.07;;;20.40;99.10;;;;;;10449798;28;20111;-85
2022/06/28 00:21:07;;;;;;;9.20;6.40;;;20.40;99.00;;;;;;10434049;28;20697;-85
2022/06/28 00:26:08;;;;;;;8.95;6.25;;;20.40;99.40;;;;;;10455425;28;20132;-90
2022/06/28 00:31:09;;;;;;;10.23;6.95;;;20.30;99.60;;;;;;10434451;28;20086;-85
2022/06/28 00:36:09;;;;;;;8.63;6.68;;;20.10;99.90;;;;;;10449445;28;20126;-89
2022/06/28 00:41:10;;;;;;;9.45;7.32;;;20.10;99.90;;;;;;10443324;28;20484;-85
2022/06/28 00:46:11;;;;;;;13.63;8.02;;;20.00;99.90;;;;;;10453234;28;20528;-90
2022/06/28 00:51:12;;;;;;;11.35;7.35;;;19.90;99.90;;;;;;10437221;28;20029;-84
2022/06/28 00:56:16;;;;;;;9.23;6.70;;;19.80;99.90;;;;;;10439378;28;20044;-85
2022/06/28 01:01:17;;;;;;;8.43;6.90;;;19.80;99.90;;;;;;10451755;28;20055;-88
2022/06/28 01:06:18;;;;;;;11.38;7.32;;;19.90;99.90;;;;;;10445555;28;20703;-87
2022/06/28 01:11:18;;;;;;;10.40;7.40;;;19.80;99.90;;;;;;10447082;28;20048;-85
2022/06/28 01:16:21;;;;;;;9.90;7.03;;;19.80;99.90;;;;;;10439859;28;20124;-85
2022/06/28 01:21:25;;;;;;;14.38;8.05;;;19.80;99.90;;;;;;10477271;22;20095;-86
2022/06/28 01:26:26;;;;;;;14.98;8.27;;;19.80;99.90;;;;;;10464800;28;20033;-83
2022/06/28 01:31:27;;;;;;;11.85;7.75;;;19.80;99.90;;;;;;10491244;28;20043;-84
2022/06/28 01:36:27;;;;;;;11.02;7.03;;;19.70;99.90;;;;;;10485566;28;20068;-82
2022/06/28 01:41:36;;;;;;;12.05;7.15;;;19.70;99.90;;;;;;10476020;28;20123;-88
2022/06/28 01:46:38;;;;;;;11.80;8.48;;;19.60;99.90;;;;;;10489095;28;20100;-83
2022/06/28 01:51:39;;;;;;;12.80;7.50;;;19.60;99.90;;;;;;10482951;28;20521;-86
2022/06/28 01:56:39;;;;;;;9.68;6.85;;;19.50;99.90;;;;;;10486715;28;20146;-86
2022/06/28 02:01:41;;;;;;;12.20;7.40;;;19.50;99.90;;;;;;10480604;28;20499;-82
2022/06/28 02:06:41;;;;;;;10.32;7.57;;;19.50;99.90;;;;;;10482746;28;20388;-89
2022/06/28 02:11:42;;;;;;;9.65;7.18;;;19.40;99.90;;;;;;10487901;28;20047;-87
2022/06/28 02:16:44;;;;;;;10.75;7.65;;;19.40;99.90;;;;;;10481354;28;20152;-83
2022/06/28 02:21:45;;;;;;;12.10;7.20;;;19.40;99.90;;;;;;10483904;28;20063;-87
2022/06/28 02:26:46;;;;;;;11.38;8.00;;;19.40;99.90;;;;;;10482784;28;20043;-84
2022/06/28 02:31:46;;;;;;;10.77;8.25;;;19.40;99.90;;;;;;10477237;28;20069;-87
2022/06/28 02:42:06;;;;;;;16.13;8.95;;;19.30;99.90;;;;;;10471854;22;20065;-83
2022/06/28 02:47:07;;;;;;;12.50;8.00;;;19.30;99.90;;;;;;10380849;28;20025;-85
2022/06/28 02:52:07;;;;;;;11.48;8.55;;;19.30;99.90;;;;;;10402859;28;20030;-87
2022/06/28 02:57:08;;;;;;;13.98;9.50;;;19.30;99.90;;;;;;10402738;28;20037;-83
2022/06/28 03:02:08;;;;;;;13.20;8.60;;;19.30;99.90;;;;;;10393966;28;20053;-84
2022/06/28 03:07:09;;;;;;;15.57;9.23;;;19.40;99.90;;;;;;10401034;28;20488;-84
2022/06/28 03:12:10;;;;;;;13.02;8.10;;;19.40;99.90;;;;;;10400382;28;20044;-84
2022/06/28 03:17:11;;;;;;;16.70;8.52;;;19.40;99.90;;;;;;10395188;28;20133;-85
2022/06/28 03:22:11;;;;;;;12.23;9.00;;;19.50;99.90;;;;;;10400097;28;20481;-86
2022/06/28 03:27:12;;;;;;;12.38;8.25;;;19.60;99.90;;;;;;10401816;28;20033;-88
2022/06/28 03:32:13;;;;;;;16.58;9.32;;;19.70;99.90;;;;;;10401179;28;20728;-84
2022/06/28 03:37:15;;;;;;;11.07;8.93;;;19.70;99.90;;;;;;10400772;28;20045;-85
2022/06/28 03:42:15;;;;;;;12.40;8.50;;;19.80;99.90;;;;;;10404000;28;20528;-86
2022/06/28 03:47:16;;;;;;;17.23;9.85;;;20.00;99.90;;;;;;10398628;28;20037;-85
2022/06/28 03:52:17;;;;;;;13.05;8.73;;;20.00;99.90;;;;;;10409074;28;20029;-84
2022/06/28 03:57:18;;;;;;;10.95;8.82;;;20.10;99.90;;;;;;10406185;28;20049;-84
2022/06/28 04:02:18;;;;;;;12.55;9.60;;;20.20;99.90;;;;;;10401666;28;20033;-88
2022/06/28 04:07:19;;;;;;;16.95;9.65;;;20.30;99.90;;;;;;10405921;28;20033;-86
2022/06/28 04:12:19;;;;;;;12.77;9.57;;;20.40;99.90;;;;;;10406207;28;20388;-84
2022/06/28 04:17:20;;;;;;;13.68;9.95;;;20.50;99.90;;;;;;10405031;28;20635;-82
2022/06/28 04:22:21;;;;;;;12.68;9.13;;;20.60;99.90;;;;;;10422913;23;20072;-86
2022/06/28 04:27:21;;;;;;;17.42;9.77;;;20.80;99.90;;;;;;10409601;28;20030;-83
2022/06/28 04:32:22;;;;;;;15.05;9.65;;;21.00;99.90;;;;;;10391552;28;20034;-81
2022/06/28 04:37:23;;;;;;;18.48;10.32;;;21.20;99.90;;;;;;10415132;28;20033;-82
2022/06/28 04:42:23;;;;;;;15.55;9.82;;;21.70;99.90;;;;;;10417543;28;20041;-82
2022/06/28 04:47:24;;;;;;;11.77;9.48;;;22.10;99.90;;;;;;10415458;28;20529;-83
2022/06/28 04:52:24;;;;;;;19.83;10.07;;;22.40;99.90;;;;;;10408567;28;20042;-85
2022/06/28 04:57:25;;;;;;;17.27;9.95;;;22.60;99.90;;;;;;10401280;28;20042;-83
2022/06/28 05:02:26;;;;;;;15.38;9.68;;;22.70;99.90;;;;;;10413987;28;20065;-83
2022/06/28 05:07:26;;;;;;;17.52;10.55;;;22.80;99.90;;;;;;10411316;28;20056;-83
2022/06/28 05:12:27;;;;;;;14.73;10.43;;;23.00;99.90;;;;;;10413952;28;20063;-86
2022/06/28 05:17:28;;;;;;;16.50;9.60;;;23.20;99.90;;;;;;10412907;28;20040;-86
2022/06/28 05:22:29;;;;;;;14.82;10.27;;;23.40;99.90;;;;;;10413455;28;20053;-86
2022/06/28 05:27:29;;;;;;;19.38;10.63;;;23.60;99.90;;;;;;10395426;28;20172;-82
2022/06/28 05:32:30;;;;;;;14.07;9.80;;;23.80;98.70;;;;;;10415413;28;20036;-83
2022/06/28 05:37:30;;;;;;;18.67;10.38;;;24.00;98.60;;;;;;10409539;28;20052;-83
2022/06/28 05:42:31;;;;;;;13.57;9.60;;;24.10;98.60;;;;;;10422199;28;20532;-82
2022/06/28 05:47:33;;;;;;;19.58;10.45;;;24.20;97.80;;;;;;10411987;28;20151;-82
2022/06/28 05:52:33;;;;;;;15.68;9.25;;;24.50;96.90;;;;;;10410810;28;20021;-85
2022/06/28 05:57:34;;;;;;;16.48;10.13;;;24.70;96.40;;;;;;10407615;28;20034;-82
2022/06/28 06:02:34;;;;;;;13.48;9.23;;;24.80;94.50;;;;;;10409096;28;20037;-83
2022/06/28 06:07:35;;;;;;;17.38;11.27;;;25.00;94.00;;;;;;10406472;28;20083;-83
2022/06/28 06:12:36;;;;;;;15.10;10.88;;;25.10;93.90;;;;;;10398066;28;20705;-83
2022/06/28 06:17:36;;;;;;;12.95;9.88;;;25.10;93.40;;;;;;10410561;28;20078;-84
2022/06/28 06:22:38;;;;;;;14.70;9.85;;;25.40;93.50;;;;;;10383107;28;20045;-83
2022/06/28 06:27:42;;;;;;;16.70;9.45;;;25.50;92.90;;;;;;10375673;28;20029;-83
2022/06/28 06:32:43;;;;;;;15.00;8.67;;;25.80;92.00;;;;;;10381446;28;20029;-84
2022/06/28 06:37:43;;;;;;;12.70;9.07;;;26.00;91.30;;;;;;10384546;28;20396;-83
2022/06/28 06:42:44;;;;;;;14.50;8.77;;;26.20;90.20;;;;;;10362160;28;20028;-83
2022/06/28 06:47:45;;;;;;;11.82;7.68;;;26.40;88.80;;;;;;10396833;28;20041;-83
2022/06/28 06:52:46;;;;;;;10.05;7.75;;;26.60;88.90;;;;;;10407452;28;20502;-85
2022/06/28 06:57:46;;;;;;;10.45;8.15;;;27.10;87.20;;;;;;10419923;28;20041;-89
2022/06/28 07:02:47;;;;;;;11.43;7.50;;;28.30;85.50;;;;;;10386396;28;20017;-85
2022/06/28 07:07:47;;;;;;;10.27;7.03;;;29.50;80.20;;;;;;10404772;28;20025;-87
2022/06/28 07:12:49;;;;;;;10.25;7.13;;;30.20;77.10;;;;;;10383505;28;20506;-87
2022/06/28 07:17:49;;;;;;;10.75;7.25;;;30.90;76.20;;;;;;10382541;28;20041;-86
2022/06/28 07:22:50;;;;;;;9.25;7.63;;;31.20;73.70;;;;;;10401143;28;20053;-85
2022/06/28 07:27:51;;;;;;;8.88;7.10;;;31.30;72.80;;;;;;10404638;28;20101;-85
2022/06/28 07:32:51;;;;;;;11.35;8.13;;;31.40;72.00;;;;;;10387176;28;20067;-84
2022/06/28 07:37:52;;;;;;;10.18;7.95;;;32.00;72.10;;;;;;10386944;28;20032;-83
2022/06/28 07:42:52;;;;;;;11.43;9.48;;;32.20;70.20;;;;;;10386982;28;20495;-82
2022/06/28 07:47:53;;;;;;;10.73;7.90;;;32.30;69.40;;;;;;10386655;28;20039;-87
2022/06/28 07:52:59;;;;;;;10.40;8.30;;;32.00;70.50;;;;;;10404460;28;20044;-84
2022/06/28 07:58:00;;;;;;;9.73;8.70;;;32.00;72.20;;;;;;10404844;28;20029;-83
2022/06/28 08:03:01;;;;;;;8.68;6.82;;;31.70;71.00;;;;;;10386086;28;20033;-87
2022/06/28 08:08:01;;;;;;;12.07;8.00;;;31.40;69.20;;;;;;10397428;28;20477;-85
2022/06/28 08:13:03;;;;;;;8.15;7.07;;;31.40;71.40;;;;;;10403912;28;20030;-83
2022/06/28 08:18:03;;;;;;;9.25;7.63;;;31.40;70.70;;;;;;10403691;28;20588;-86
2022/06/28 08:23:04;;;;;;;9.10;7.22;;;31.10;71.20;;;;;;10404316;28;20061;-86
2022/06/28 08:28:05;;;;;;;8.57;7.35;;;31.30;73.40;;;;;;10404263;28;20107;-84
2022/06/28 08:33:05;;;;;;;12.05;8.38;;;31.40;73.20;;;;;;10410935;28;20038;-85
2022/06/28 08:38:06;;;;;;;10.82;8.05;;;31.60;70.40;;;;;;10411270;28;20037;-87
2022/06/28 08:43:07;;;;;;;12.63;9.60;;;32.00;70.70;;;;;;10410810;28;20637;-83
2022/06/28 08:48:36;;;;;;;8.60;7.60;;;32.20;71.10;;;;;;10410512;28;20380;-85
2022/06/28 08:53:40;;;;;;;9.23;7.38;;;32.50;69.70;;;;;;10410037;28;20112;-89
2022/06/28 08:58:43;;;;;;;9.23;7.30;;;32.00;69.50;;;;;;10410186;28;20036;-83
2022/06/28 09:03:49;;;;;;;15.63;8.60;;;31.10;71.10;;;;;;10409631;28;20029;-83
2022/06/28 09:08:50;;;;;;;10.75;8.57;;;30.70;73.50;;;;;;10409826;28;20055;-87
2022/06/28 09:13:50;;;;;;;9.55;8.05;;;30.60;73.60;;;;;;10391665;28;20464;-83
2022/06/28 09:18:51;;;;;;;11.10;8.13;;;30.80;72.90;;;;;;10408926;28;20032;-83
2022/06/28 09:23:52;;;;;;;9.73;8.30;;;31.00;73.40;;;;;;10409266;28;20046;-83
2022/06/28 09:28:53;;;;;;;10.73;8.40;;;30.90;72.80;;;;;;10408908;28;20100;-83
2022/06/28 09:34:02;;;;;;;11.43;7.88;;;31.40;73.90;;;;;;10408422;28;20043;-84
2022/06/28 09:39:15;;;;;;;10.57;8.00;;;31.90;71.80;;;;;;10402864;28;20038;-88
2022/06/28 09:44:17;;;;;;;8.52;7.65;;;32.00;72.40;;;;;;10390472;28;20025;-89
2022/06/28 09:49:18;;;;;;;8.13;7.25;;;32.40;71.50;;;;;;10403874;28;20535;-88
2022/06/28 09:54:20;;;;;;;7.32;6.63;;;32.30;70.40;;;;;;10383112;28;20092;-84
2022/06/28 09:59:22;;;;;;;10.90;5.78;;;31.90;69.90;;;;;;10392530;28;20036;-87
2022/06/28 10:04:25;;;;;;;7.93;6.47;;;31.70;67.70;;;;;;10387356;28;20041;-84
2022/06/28 10:09:26;;;;;;;13.32;7.53;;;31.60;70.00;;;;;;10402390;28;20084;-84
2022/06/28 10:19:46;;;;;;;12.00;10.07;;;30.70;72.00;;;;;;10400637;28;20159;-84
2022/06/28 10:24:51;;;;;;;13.05;8.73;;;30.50;76.10;;;;;;10329932;28;20058;-86
2022/06/28 10:30:17;;;;;;;22.25;11.10;;;31.00;76.40;;;;;;10321285;28;20109;-83
2022/06/28 10:35:33;;;;;;;18.77;10.38;;;30.90;77.40;;;;;;10318654;28;20051;-86
2022/06/28 10:40:47;;;;;;;11.60;7.80;;;30.70;78.70;;;;;;10324763;28;20026;-85
2022/06/28 10:46:17;;;;;;;11.38;8.32;;;29.60;78.70;;;;;;10321187;28;20034;-84
2022/06/28 10:51:19;;;;;;;12.20;8.68;;;28.70;81.00;;;;;;10308572;28;20034;-84
2022/06/28 10:56:21;;;;;;;11.13;7.63;;;28.00;83.30;;;;;;10317920;28;20037;-86
2022/06/28 11:01:40;;;;;;;10.45;6.95;;;27.20;84.80;;;;;;10319528;28;20551;-84
2022/06/28 11:06:43;;;;;;;11.02;7.03;;;26.30;88.30;;;;;;10306825;28;20039;-83
2022/06/28 11:12:17;;;;;;;10.57;4.93;;;25.60;90.00;;;;;;10324547;28;20485;-84
2022/06/28 11:17:27;;;;;;;4.77;2.30;;;25.20;90.50;;;;;;10323382;28;20072;-85
2022/06/28 11:22:49;;;;;;;3.75;1.30;;;24.90;91.30;;;;;;10343670;28;20052;-83
2022/06/28 11:27:53;;;;;;;2.55;1.60;;;24.50;91.40;;;;;;10403215;28;20029;-87
2022/06/28 11:32:56;;;;;;;3.67;1.48;;;24.00;92.90;;;;;;10388239;28;20029;-84
2022/06/28 11:38:02;;;;;;;1.88;1.48;;;23.90;94.50;;;;;;10402426;28;20026;-85
2022/06/28 11:43:09;;;;;;;1.45;1.25;;;23.90;96.00;;;;;;10374846;28;20032;-85
2022/06/28 11:48:13;;;;;;;1.20;1.00;;;23.70;97.20;;;;;;10400524;28;20060;-84
2022/06/28 11:53:35;;;;;;;1.63;1.13;;;23.70;99.80;;;;;;10385057;28;20389;-84
2022/06/28 11:58:37;;;;;;;2.00;1.60;;;23.50;99.90;;;;;;10387429;28;20118;-85
2022/06/28 12:03:44;;;;;;;2.65;1.98;;;23.50;99.90;;;;;;10404193;28;20049;-85
2022/06/28 12:08:52;;;;;;;1.85;1.65;;;23.40;99.90;;;;;;10393683;28;20073;-85
2022/06/28 12:13:58;;;;;;;1.92;1.73;;;23.20;99.90;;;;;;10391281;28;20034;-86
2022/06/28 12:19:00;;;;;;;2.67;2.40;;;23.20;99.90;;;;;;10425793;28;20032;-86
2022/06/28 12:24:01;;;;;;;3.70;2.92;;;23.00;99.90;;;;;;10392794;28;20057;-88
2022/06/28 12:29:01;;;;;;;3.58;3.28;;;23.00;99.90;;;;;;10396426;28;20032;-86
2022/06/28 12:34:07;;;;;;;8.35;6.28;;;23.00;99.90;;;;;;10407141;28;20036;-87
2022/06/28 12:39:07;;;;;;;8.27;6.53;;;23.00;99.90;;;;;;10391811;28;20033;-89
2022/06/28 12:44:08;;;;;;;8.05;6.90;;;23.00;99.90;;;;;;10406965;28;20033;-87
2022/06/28 12:49:09;;;;;;;8.38;6.57;;;22.90;99.90;;;;;;10394203;28;20124;-87
2022/06/28 12:54:09;;;;;;;9.07;7.47;;;23.00;99.90;;;;;;10409988;28;20029;-91
2022/06/28 12:59:10;;;;;;;8.35;6.68;;;23.00;99.90;;;;;;10411239;28;20037;-89
2022/06/28 13:04:13;;;;;;;8.52;6.57;;;23.00;99.90;;;;;;10394174;28;20033;-88
2022/06/28 13:09:14;;;;;;;9.85;6.70;;;23.20;99.90;;;;;;10392312;28;20087;-87
2022/06/28 13:14:15;;;;;;;8.70;6.38;;;23.50;99.90;;;;;;10392699;28;20038;-87
2022/06/28 13:19:15;;;;;;;7.82;7.03;;;23.80;99.90;;;;;;10390361;28;20402;-86
2022/06/28 13:24:17;;;;;;;8.30;7.03;;;23.90;99.90;;;;;;10405979;28;20064;-84
2022/06/28 13:29:17;;;;;;;9.57;6.90;;;24.00;99.90;;;;;;10411957;28;20036;-85
2022/06/28 13:34:18;;;;;;;8.43;6.45;;;24.10;99.90;;;;;;10411459;28;20043;-86
2022/06/28 13:39:19;;;;;;;15.32;10.55;;;24.10;99.90;;;;;;10409125;28;20048;-87
2022/06/28 13:44:20;;;;;;;10.98;8.23;;;24.30;99.90;;;;;;10408314;28;20540;-86
2022/06/28 13:49:21;;;;;;;16.08;10.27;;;24.30;99.90;;;;;;10404189;28;20151;-85
2022/06/28 13:54:21;;;;;;;14.82;10.80;;;24.50;99.90;;;;;;10406039;28;20040;-85
2022/06/28 13:59:23;;;;;;;14.27;10.25;;;24.70;99.90;;;;;;10412450;28;20051;-86
2022/06/28 14:04:23;;;;;;;13.98;9.95;;;25.00;99.90;;;;;;10408634;28;20037;-85
2022/06/28 14:09:24;;;;;;;17.80;11.80;;;25.10;99.90;;;;;;10393851;28;20033;-86
2022/06/28 14:14:24;;;;;;;11.85;9.30;;;25.40;99.90;;;;;;10390521;28;20493;-86
2022/06/28 14:19:25;;;;;;;19.25;9.23;;;25.70;99.80;;;;;;10390190;28;20046;-85
2022/06/28 14:24:25;;;;;;;8.73;6.72;;;25.80;98.50;;;;;;10408247;28;20123;-86
2022/06/28 14:29:28;;;;;;;12.07;7.25;;;25.60;97.20;;;;;;10407110;28;20028;-85
2022/06/28 14:34:29;;;;;;;8.43;6.30;;;25.60;97.40;;;;;;10384753;28;20037;-89
2022/06/28 14:39:30;;;;;;;9.45;6.82;;;25.50;96.90;;;;;;10404158;28;20057;-87
2022/06/28 14:44:30;;;;;;;8.13;6.80;;;25.60;97.60;;;;;;10400104;28;20129;-88
2022/06/28 14:49:31;;;;;;;10.85;6.78;;;25.70;96.70;;;;;;10396369;28;20111;-85
2022/06/28 14:54:33;;;;;;;6.55;4.68;;;25.90;96.70;;;;;;10387807;28;20024;-86
2022/06/28 14:59:34;;;;;;;5.00;4.53;;;26.10;95.40;;;;;;10402716;28;20041;-85
2022/06/28 15:04:34;;;;;;;5.57;4.22;;;26.10;94.40;;;;;;10397178;28;20029;-86
2022/06/28 15:09:35;;;;;;;4.75;3.33;;;26.20;94.20;;;;;;10382032;28;20025;-88
2022/06/28 15:14:37;;;;;;;5.45;3.78;;;26.40;92.30;;;;;;10383643;28;20129;-85
2022/06/28 15:19:37;;;;;;;3.45;3.15;;;26.30;92.20;;;;;;10397694;28;20117;-87
2022/06/28 15:35:19;;;;;;;3.63;2.80;;;25.90;92.10;;;;;;10403800;28;20060;-84
2022/06/28 15:40:19;;;;;;;2.95;2.58;;;25.80;91.50;;;;;;10409051;28;20385;-86
2022/06/28 15:45:21;;;;;;;3.80;3.17;;;25.70;91.00;;;;;;10383094;28;20045;-84
2022/06/28 15:50:22;;;;;;;3.58;3.00;;;25.40;91.30;;;;;;10408545;28;20604;-86
2022/06/28 15:55:23;;;;;;;3.17;2.80;;;25.30;91.20;;;;;;10394278;28;20508;-85
2022/06/28 16:00:24;;;;;;;4.03;2.88;;;25.10;91.10;;;;;;10393818;28;20044;-88
2022/06/28 16:05:25;;;;;;;5.35;3.35;;;25.00;91.60;;;;;;10403549;28;20101;-87
2022/06/28 16:10:26;;;;;;;4.97;3.33;;;24.90;92.20;;;;;;10401495;28;20037;-87
2022/06/28 16:15:35;;;;;;;4.10;3.35;;;25.10;92.50;;;;;;10410278;28;20026;-85
2022/06/28 16:20:38;;;;;;;5.53;4.00;;;25.20;92.60;;;;;;10407171;28;20481;-86
2022/06/28 16:25:39;;;;;;;4.57;3.63;;;25.30;92.80;;;;;;10416400;28;20520;-89
2022/06/28 16:30:40;;;;;;;4.30;3.90;;;25.30;92.50;;;;;;10412958;28;20140;-85
2022/06/28 16:35:40;;;;;;;4.82;4.00;;;25.10;92.10;;;;;;10414382;28;20476;-86
2022/06/28 16:40:41;;;;;;;4.68;4.28;;;25.00;93.30;;;;;;10410972;28;20067;-85
2022/06/28 16:45:42;;;;;;;4.38;3.97;;;24.80;93.40;;;;;;10388032;28;20052;-86
2022/06/28 16:50:43;;;;;;;4.95;4.07;;;24.70;93.90;;;;;;10404584;28;20132;-87
2022/06/28 16:55:44;;;;;;;4.90;4.35;;;24.70;94.10;;;;;;10390020;28;21164;-87
2022/06/28 17:00:44;;;;;;;4.85;4.30;;;24.60;94.30;;;;;;10384003;28;20715;-85
2022/06/28 17:05:45;;;;;;;5.90;5.30;;;24.60;94.30;;;;;;10406710;28;20029;-85
2022/06/28 17:10:45;;;;;;;7.20;5.72;;;24.60;94.40;;;;;;10407970;28;20029;-85
2022/06/28 17:15:46;;;;;;;5.80;5.07;;;24.40;95.10;;;;;;10407741;28;20397;-89
2022/06/28 17:20:47;;;;;;;5.75;5.25;;;24.30;95.50;;;;;;10407577;28;20599;-85
2022/06/28 17:25:47;;;;;;;6.15;5.35;;;24.20;95.70;;;;;;10394816;28;20024;-87
2022/06/28 17:30:48;;;;;;;6.55;5.32;;;24.10;96.00;;;;;;10385073;28;20138;-85
2022/06/28 17:35:49;;;;;;;5.65;5.15;;;24.10;96.30;;;;;;10411166;28;20064;-85
2022/06/28 17:40:50;;;;;;;8.80;5.97;;;24.10;96.50;;;;;;10408325;28;20111;-88
2022/06/28 17:45:50;;;;;;;5.72;5.22;;;23.90;96.70;;;;;;10403363;28;20025;-87
2022/06/28 17:50:53;;;;;;;6.13;5.53;;;23.80;97.50;;;;;;10406646;28;20381;-86
2022/06/28 17:55:53;;;;;;;5.93;5.43;;;23.80;97.80;;;;;;10402653;28;20026;-86
2022/06/28 18:00:54;;;;;;;8.23;6.85;;;23.70;98.30;;;;;;10405870;28;20037;-88
2022/06/28 18:05:55;;;;;;;6.68;6.07;;;23.70;99.10;;;;;;10389049;28;20103;-87
2022/06/28 18:10:56;;;;;;;10.18;7.13;;;23.60;99.50;;;;;;10397103;28;20036;-85
2022/06/28 18:15:56;;;;;;;7.38;6.68;;;23.50;99.90;;;;;;10388015;28;20021;-86
2022/06/28 18:20:59;;;;;;;9.07;7.43;;;23.50;99.90;;;;;;10392212;28;20037;-88
2022/06/28 18:25:59;;;;;;;8.27;7.47;;;23.40;99.90;;;;;;10406837;28;20025;-86
2022/06/28 18:31:00;;;;;;;9.73;7.72;;;23.30;99.90;;;;;;10382311;28;20033;-86
2022/06/28 18:36:00;;;;;;;8.40;7.05;;;23.30;99.90;;;;;;10404401;28;20061;-87
2022/06/28 18:41:01;;;;;;;9.05;7.90;;;23.20;99.90;;;;;;10405911;28;20091;-87
2022/06/28 18:46:02;;;;;;;10.23;8.20;;;23.10;99.90;;;;;;10400077;28;20545;-84
2022/06/28 18:51:03;;;;;;;10.00;8.07;;;23.00;99.90;;;;;;10390828;28;20625;-84
2022/06/28 18:56:04;;;;;;;11.15;9.50;;;23.00;99.90;;;;;;10403347;28;20033;-84
2022/06/28 19:01:05;;;;;;;12.77;9.35;;;22.90;99.90;;;;;;10386729;28;20048;-86
2022/06/28 19:06:05;;;;;;;11.60;9.57;;;22.70;99.90;;;;;;10398635;28;20036;-85
2022/06/28 19:11:13;;;;;;;13.40;9.97;;;22.50;99.90;;;;;;10401315;28;20099;-84
2022/06/28 19:16:13;;;;;;;13.95;10.35;;;22.40;99.90;;;;;;10386658;28;20033;-86
2022/06/28 19:21:14;;;;;;;13.48;10.65;;;22.20;99.90;;;;;;10380953;28;20054;-85
2022/06/28 19:26:15;;;;;;;13.65;10.40;;;22.00;99.90;;;;;;10376172;28;20100;-87
2022/06/28 19:31:15;;;;;;;13.55;11.43;;;21.70;99.90;;;;;;10400573;28;20033;-86
2022/06/28 19:36:16;;;;;;;13.73;11.60;;;21.30;99.90;;;;;;10388131;28;20021;-85
2022/06/28 19:41:17;;;;;;;13.48;11.38;;;20.90;99.90;;;;;;10376168;28;20117;-87
2022/06/28 19:46:17;;;;;;;12.57;10.55;;;20.70;99.90;;;;;;10371969;28;20022;-84
2022/06/28 19:51:18;;;;;;;15.00;12.13;;;20.70;99.90;;;;;;10382068;28;20030;-86
2022/06/28 19:56:19;;;;;;;18.88;13.95;;;20.60;99.90;;;;;;10395909;28;20037;-89
2022/06/28 20:01:19;;;;;;;15.32;12.70;;;20.50;99.90;;;;;;10389263;28;20485;-85
2022/06/28 20:06:23;;;;;;;14.27;11.60;;;20.30;99.90;;;;;;10380933;28;20087;-86
2022/06/28 20:11:24;;;;;;;12.60;11.20;;;20.20;99.90;;;;;;10398743;28;20036;-86
2022/06/28 20:16:24;;;;;;;14.25;12.63;;;20.10;99.90;;;;;;10395047;28;20021;-86
2022/06/28 20:21:25;;;;;;;14.95;12.45;;;20.10;99.90;;;;;;10397279;28;20061;-84
2022/06/28 20:26:26;;;;;;;15.98;13.02;;;20.00;99.90;;;;;;10384322;28;20034;-88
2022/06/28 20:31:27;;;;;;;14.90;12.45;;;19.90;99.90;;;;;;10401502;28;20028;-85
2022/06/28 20:36:27;;;;;;;16.88;14.02;;;19.70;99.90;;;;;;10396585;28;20045;-85
2022/06/28 20:46:47;;;;;;;16.65;14.07;;;19.60;99.90;;;;;;10390587;28;20064;-85
2022/06/28 20:51:47;;;;;;;18.08;13.48;;;19.60;99.90;;;;;;10412803;28;20033;-86
2022/06/28 20:56:48;;;;;;;15.35;13.35;;;19.60;99.90;;;;;;10408352;28;20405;-88
2022/06/28 21:01:49;;;;;;;17.42;13.98;;;19.60;99.90;;;;;;10409353;28;20108;-86
2022/06/28 21:06:50;;;;;;;19.67;15.95;;;19.60;99.90;;;;;;10399118;28;20112;-87
2022/06/28 21:11:51;;;;;;;18.40;14.57;;;19.50;99.90;;;;;;10407108;28;20100;-86
2022/06/28 21:16:52;;;;;;;15.60;13.43;;;19.60;99.90;;;;;;10410680;28;20033;-86
2022/06/28 21:21:53;;;;;;;16.88;14.02;;;19.70;99.90;;;;;;10413242;28;20053;-85
2022/06/28 21:26:53;;;;;;;19.83;15.18;;;19.80;99.90;;;;;;10402246;28;20026;-89
2022/06/28 21:31:54;;;;;;;19.63;15.77;;;19.80;99.90;;;;;;10409260;28;20037;-90
2022/06/28 21:36:54;;;;;;;16.23;13.93;;;19.90;99.90;;;;;;10428640;22;20061;-85
2022/06/28 21:41:55;;;;;;;16.00;13.48;;;19.90;99.90;;;;;;10408268;28;20033;-89
2022/06/28 21:46:56;;;;;;;18.35;13.95;;;20.00;99.90;;;;;;10404511;28;20038;-86
2022/06/28 21:51:56;;;;;;;15.60;12.40;;;20.00;99.90;;;;;;10408968;28;20025;-85
2022/06/28 21:56:57;;;;;;;15.88;13.45;;;20.00;99.90;;;;;;10397757;28;20079;-86
2022/06/28 22:01:58;;;;;;;15.30;12.40;;;20.10;99.90;;;;;;10404256;28;20032;-88
2022/06/28 22:06:59;;;;;;;17.15;13.20;;;20.00;99.90;;;;;;10393724;28;20076;-88
2022/06/28 22:11:59;;;;;;;19.02;15.65;;;20.00;99.90;;;;;;10404327;28;20025;-88
2022/06/28 22:17:00;;;;;;;17.25;15.35;;;20.10;99.90;;;;;;10402349;28;20120;-87
2022/06/28 22:22:01;;;;;;;16.35;14.15;;;20.00;99.90;;;;;;10407533;28;20099;-88
2022/06/28 22:27:02;;;;;;;16.73;13.80;;;19.90;99.90;;;;;;10404497;28;20396;-86
2022/06/28 22:32:03;;;;;;;17.05;13.85;;;19.90;99.90;;;;;;10406564;28;20033;-86
2022/06/28 22:37:04;;;;;;;19.02;13.85;;;19.80;99.90;;;;;;10395504;28;20056;-88
2022/06/28 22:42:07;;;;;;;19.35;14.35;;;19.80;99.90;;;;;;10395551;28;20172;-84
2022/06/28 22:47:08;;;;;;;21.85;16.35;;;19.70;99.90;;;;;;10403615;28;20865;-86
2022/06/28 22:52:08;;;;;;;19.40;15.02;;;19.70;99.90;;;;;;10385871;28;20092;-85
2022/06/28 22:57:09;;;;;;;21.23;16.00;;;19.60;99.90;;;;;;10387120;28;20048;-88
2022/06/28 23:02:09;;;;;;;15.20;8.93;;;19.60;99.90;;;;;;10404101;28;20038;-88
2022/06/28 23:07:10;;;;;;;28.95;16.15;;;19.50;99.90;;;;;;10405585;28;20039;-87
2022/06/28 23:12:12;;;;;;;23.02;17.98;;;19.20;99.90;;;;;;10403623;28;20014;-87
2022/06/28 23:17:13;;;;;;;22.02;17.88;;;18.90;99.90;;;;;;10387118;28;20548;-86
2022/06/28 23:22:13;;;;;;;20.50;16.90;;;18.70;99.90;;;;;;10415038;28;20121;-89
2022/06/28 23:27:14;;;;;;;20.88;16.35;;;18.60;99.90;;;;;;10389343;28;20038;-87
2022/06/28 23:32:14;;;;;;;21.30;17.20;;;18.50;99.90;;;;;;10382740;28;20040;-87
2022/06/28 23:37:15;;;;;;;27.15;18.42;;;18.60;99.90;;;;;;10412712;28;20484;-85
2022/06/28 23:42:15;;;;;;;21.05;16.92;;;18.60;99.90;;;;;;10387653;28;20468;-87
2022/06/28 23:47:16;;;;;;;22.30;18.13;;;18.60;99.90;;;;;;10389853;28;20022;-87
2022/06/28 23:52:17;;;;;;;22.75;17.67;;;18.70;99.90;;;;;;10411789;28;20021;-87
2022/06/28 23:57:17;;;;;;;20.90;17.23;;;18.90;99.90;;;;;;10396362;28;20036;-86
